Altoona, Pennsylvania
Current Conditions -  °F | °C
As of 9:53 AM on Saturday 20 Dec 2014 (Local Time) from KAOO Reporting Station
Few Clouds Few Clouds  
Wind Chill: -6°   Ceiling: Unl
Heat Index: -3°   Visibility: 10mi
Dew Point: -7°   Wind: 5mph
Humidity: 72%   Direction: 350°N
Pressure: 30.24"   Gusts: NA
Location:  40.51°N, 78.4°W
Report Text: KAOO 201453Z AUTO 35004KT 10SM FEW016 M03/M07 A3024 RMK AO2 SLP260 T10281072 53001
Loading
Personal Weather Stations






























Interactive Weather Map New forecast layout! Learn more

10-Day Weather Forecast

Advertisements
Track Severe Weather on mobile